D/T METAR WX W/DIR W/SPE G/SPE TEMP DEWP
7/12/19 23:30 EINN 072330Z 25027G39KT 9999 FEW017 SCT026 10/07 Q0997 NOSIG WSW (250°) 31.1mph 44.9mph 10°C 7°C
7/12/19 23:00 EINN 072300Z 25024G37KT 9999 FEW017 SCT026 11/08 Q0996 NOSIG WSW (250°) 27.6mph 42.6mph 11°C 8°C
7/12/19 22:30 EINN 072230Z 25026G38KT 9999 FEW012 SCT026 11/08 Q0996 NOSIG WSW (250°) 29.9mph 43.7mph 11°C 8°C
7/12/19 22:00 EINN 072200Z 25028G40KT 9999 -DZ FEW009 SCT014 BKN021 12/10 Q0996 TEMPO 4000 -DZ WSW (250°) 32.2mph 46.0mph 12°C 10°C
7/12/19 21:30 EINN 072130Z 24030G41KT 6000 -RADZ FEW006 BKN008 BKN010 12/11 Q0995 TEMPO 4000 -RA -DZ WSW (240°) 34.5mph 47.2mph 12°C 11°C
7/12/19 21:00 EINN 072100Z 23025KT 8000 -RA FEW007 BKN009 BKN012 12/12 Q0995 TEMPO 4000 BKN008 -RA SW (230°) 28.8mph 12°C 12°C
7/12/19 20:30 EINN 072030Z 22020G32KT 6000 -RA BKN009 12/12 Q0995 TEMPO 4000 BKN008 -RA SW (220°) 23.0mph 36.8mph 12°C 12°C
7/12/19 20:00 EINN 072000Z 20013KT 6000 -RA SCT008 BKN011 12/11 Q0995 TEMPO 4000 BKN008 -RA SSW (200°) 15.0mph 12°C 11°C
7/12/19 19:30 EINN 071930Z 18014KT 9999 -RA OVC016 11/10 Q0996 NOSIG -RA S (180°) 16.1mph 11°C 10°C
7/12/19 19:00 EINN 071900Z 18014KT 9999 -RA SCT018 BKN030 11/10 Q0997 NOSIG -RA S (180°) 16.1mph 11°C 10°C
7/12/19 18:30 EINN 071830Z 17015KT 9999 -RA BKN022 BKN040 11/09 Q0997 NOSIG -RA S (170°) 17.3mph 11°C 9°C
7/12/19 18:00 EINN 071800Z 17017KT 9999 SCT022 BKN050 12/09 Q0998 NOSIG S (170°) 19.6mph 12°C 9°C
7/12/19 17:30 EINN 071730Z 18012KT 9999 BKN027 BKN060 12/09 Q0999 NOSIG S (180°) 13.8mph 12°C 9°C
7/12/19 17:00 EINN 071700Z 16013KT 9999 BKN029 BKN150 11/08 Q1001 NOSIG SSE (160°) 15.0mph 11°C 8°C
7/12/19 16:30 EINN 071630Z 17012KT 9999 SCT028 BKN150 BKN200 11/09 Q1001 NOSIG S (170°) 13.8mph 11°C 9°C
7/12/19 16:00 EINN 071600Z 17010KT 9999 FEW037 SCT150 BKN200 11/09 Q1003 NOSIG S (170°) 11.5mph 11°C 9°C
7/12/19 15:30 EINN 071530Z 16012KT 9999 FEW035 SCT150 BKN200 11/09 Q1003 NOSIG SSE (160°) 13.8mph 11°C 9°C
7/12/19 15:00 EINN 071500Z 16013KT 9999 SCT042 BKN200 12/09 Q1004 NOSIG SSE (160°) 15.0mph 12°C 9°C
7/12/19 14:30 EINN 071430Z 18011KT 9999 SCT035 BKN200 12/09 Q1005 NOSIG S (180°) 12.7mph 12°C 9°C
7/12/19 14:00 EINN 071400Z 17012KT 9999 SCT035 BKN200 12/09 Q1005 NOSIG S (170°) 13.8mph 12°C 9°C
7/12/19 13:30 EINN 071330Z 17011KT 9999 FEW022 SCT035 BKN200 13/09 Q1006 NOSIG S (170°) 12.7mph 13°C 9°C
7/12/19 13:00 EINN 071300Z 17010KT 9999 FEW022 SCT035 BKN200 13/09 Q1007 NOSIG S (170°) 11.5mph 13°C 9°C
7/12/19 12:30 EINN 071230Z 19011KT 9999 FEW018 SCT035 BKN200 13/09 Q1007 NOSIG S (190°) 12.7mph 13°C 9°C
7/12/19 12:00 EINN 071200Z 19011KT 9999 FEW018 SCT035 BKN080 13/09 Q1008 NOSIG S (190°) 12.7mph 13°C 9°C
7/12/19 11:30 EINN 071130Z 18008KT 9999 FEW018 SCT050 BKN080 12/09 Q1009 NOSIG S (180°) 9.2mph 12°C 9°C
7/12/19 11:00 EINN 071100Z 16007KT 9999 FEW018 SCT050 BKN080 12/09 Q1009 NOSIG SSE (160°) 8.1mph 12°C 9°C
7/12/19 10:30 EINN 071030Z 16005KT 9999 FEW018 SCT050 11/08 Q1009 NOSIG SSE (160°) 5.8mph 11°C 8°C
7/12/19 10:00 EINN 071000Z 18007KT 9999 FEW018 10/08 Q1010 NOSIG S (180°) 8.1mph 10°C 8°C
7/12/19 09:30 EINN 070930Z 18005KT 9999 FEW015 09/08 Q1010 NOSIG S (180°) 5.8mph 9°C 8°C
7/12/19 09:00 EINN 070900Z 19008KT 9999 FEW012 09/08 Q1010 NOSIG S (190°) 9.2mph 9°C 8°C
7/12/19 08:30 EINN 070830Z 19008KT 9999 FEW012 SCT020 09/08 Q1010 NOSIG S (190°) 9.2mph 9°C 8°C
7/12/19 08:00 EINN 070800Z 13007KT 9999 BKN012 09/08 Q1010 NOSIG SE (130°) 8.1mph 9°C 8°C
7/12/19 07:30 EINN 070730Z 12007KT 9999 OVC012 08/07 Q1011 NOSIG ESE (120°) 8.1mph 8°C 7°C
7/12/19 07:00 EINN 070700Z 13006KT 9999 OVC011 09/07 Q1011 NOSIG SE (130°) 6.9mph 9°C 7°C
7/12/19 06:30 EINN 070630Z 18006KT 9999 FEW010 BKN013 09/07 Q1011 NOSIG S (180°) 6.9mph 9°C 7°C
7/12/19 06:00 EINN 070600Z 20007KT 9999 FEW010 BKN013 09/08 Q1011 NOSIG SSW (200°) 8.1mph 9°C 8°C
7/12/19 05:30 EINN 070530Z 20005KT 9999 BKN010 08/07 Q1011 NOSIG SSW (200°) 5.8mph 8°C 7°C
7/12/19 05:00 EINN 070500Z 21008KT 9999 FEW008 BKN010 08/07 Q1011 NOSIG SSW (210°) 9.2mph 8°C 7°C
7/12/19 04:30 EINN 070430Z 22008KT 9999 FEW008 SCT010 BKN015 08/07 Q1011 NOSIG SW (220°) 9.2mph 8°C 7°C
7/12/19 04:00 EINN 070400Z 22010KT 9999 FEW007 BKN015 08/07 Q1011 NOSIG SW (220°) 11.5mph 8°C 7°C
7/12/19 03:30 EINN 070330Z 22010KT 9999 FEW008 BKN014 08/07 Q1011 NOSIG SW (220°) 11.5mph 8°C 7°C
7/12/19 03:00 EINN 070300Z 22010KT 9999 -SHRA FEW008 SCT012 BKN018 08/07 Q1012 NOSIG -SHRA SW (220°) 11.5mph 8°C 7°C
7/12/19 02:30 EINN 070230Z 23008KT 9999 FEW008 SCT012 BKN018 08/07 Q1012 NOSIG SW (230°) 9.2mph 8°C 7°C
7/12/19 02:00 EINN 070200Z 22008KT 9999 -SHRA FEW006 SCT012 08/07 Q1012 NOSIG -SHRA SW (220°) 9.2mph 8°C 7°C
7/12/19 01:30 EINN 070130Z 23008KT 9999 FEW005 SCT012 08/07 Q1011 NOSIG SW (230°) 9.2mph 8°C 7°C
7/12/19 01:00 EINN 070100Z 23008KT 9999 FEW007 SCT018 07/06 Q1011 NOSIG SW (230°) 9.2mph 7°C 6°C
7/12/19 00:30 EINN 070030Z 24008KT 9999 FEW012 SCT030 08/07 Q1011 NOSIG WSW (240°) 9.2mph 8°C 7°C
7/12/19 00:00 EINN 070000Z 23009KT 9999 FEW014 SCT037 07/06 Q1011 NOSIG SW (230°) 10.4mph 7°C 6°C